sensor_id;sensor_type;location;lat;lon;timestamp;P1;durP1;ratioP1;P2;durP2;ratioP2
27495;SDS011;14929;51.336;9.416;2022-10-19T00:01:05;1.88;;;1.30;;
27495;SDS011;14929;51.336;9.416;2022-10-19T00:03:35;1.98;;;1.48;;
27495;SDS011;14929;51.336;9.416;2022-10-19T00:06:09;2.97;;;1.70;;
27495;SDS011;14929;51.336;9.416;2022-10-19T00:08:41;2.00;;;1.50;;
27495;SDS011;14929;51.336;9.416;2022-10-19T00:11:09;3.42;;;2.00;;
27495;SDS011;14929;51.336;9.416;2022-10-19T00:13:37;2.75;;;1.50;;
27495;SDS011;14929;51.336;9.416;2022-10-19T00:16:08;2.17;;;1.50;;
27495;SDS011;14929;51.336;9.416;2022-10-19T00:18:37;2.88;;;1.80;;
27495;SDS011;14929;51.336;9.416;2022-10-19T00:21:05;2.85;;;1.80;;
27495;SDS011;14929;51.336;9.416;2022-10-19T00:23:34;5.30;;;1.70;;
27495;SDS011;14929;51.336;9.416;2022-10-19T00:26:03;2.90;;;2.30;;
27495;SDS011;14929;51.336;9.416;2022-10-19T00:28:31;3.08;;;2.38;;
27495;SDS011;14929;51.336;9.416;2022-10-19T00:31:00;3.20;;;1.73;;
27495;SDS011;14929;51.336;9.416;2022-10-19T00:33:29;5.40;;;2.10;;
27495;SDS011;14929;51.336;9.416;2022-10-19T00:35:57;4.28;;;2.05;;
27495;SDS011;14929;51.336;9.416;2022-10-19T00:38:24;2.85;;;2.10;;
27495;SDS011;14929;51.336;9.416;2022-10-19T00:40:52;3.90;;;2.00;;
27495;SDS011;14929;51.336;9.416;2022-10-19T00:43:21;2.20;;;1.63;;
27495;SDS011;14929;51.336;9.416;2022-10-19T00:45:51;4.75;;;2.20;;
27495;SDS011;14929;51.336;9.416;2022-10-19T00:48:20;3.58;;;2.47;;
27495;SDS011;14929;51.336;9.416;2022-10-19T00:50:50;6.25;;;2.50;;
27495;SDS011;14929;51.336;9.416;2022-10-19T00:53:21;1.95;;;1.80;;
27495;SDS011;14929;51.336;9.416;2022-10-19T00:55:50;2.08;;;1.88;;
27495;SDS011;14929;51.336;9.416;2022-10-19T00:58:17;1.42;;;1.33;;
27495;SDS011;14929;51.336;9.416;2022-10-19T01:00:46;1.60;;;1.50;;
27495;SDS011;14929;51.336;9.416;2022-10-19T01:03:14;2.38;;;1.20;;
27495;SDS011;14929;51.336;9.416;2022-10-19T01:05:41;2.35;;;1.50;;
27495;SDS011;14929;51.336;9.416;2022-10-19T01:08:09;4.25;;;1.55;;
27495;SDS011;14929;51.336;9.416;2022-10-19T01:10:40;4.30;;;1.70;;
27495;SDS011;14929;51.336;9.416;2022-10-19T01:13:15;1.65;;;1.52;;
27495;SDS011;14929;51.336;9.416;2022-10-19T01:15:53;1.30;;;1.20;;
27495;SDS011;14929;51.336;9.416;2022-10-19T01:18:27;1.30;;;1.20;;
27495;SDS011;14929;51.336;9.416;2022-10-19T01:21:16;2.30;;;1.20;;
27495;SDS011;14929;51.336;9.416;2022-10-19T01:30:06;0.70;;;0.70;;
27495;SDS011;14929;51.336;9.416;2022-10-19T01:32:43;1.10;;;1.00;;
27495;SDS011;14929;51.336;9.416;2022-10-19T01:35:24;1.05;;;1.02;;
27495;SDS011;14929;51.336;9.416;2022-10-19T01:37:59;1.00;;;1.00;;
27495;SDS011;14929;51.336;9.416;2022-10-19T01:40:41;1.20;;;1.10;;
27495;SDS011;14929;51.336;9.416;2022-10-19T01:43:15;1.15;;;1.10;;
27495;SDS011;14929;51.336;9.416;2022-10-19T01:45:53;1.10;;;1.10;;
27495;SDS011;14929;51.336;9.416;2022-10-19T01:48:24;1.15;;;1.05;;
27495;SDS011;14929;51.336;9.416;2022-10-19T01:50:56;0.90;;;0.90;;
27495;SDS011;14929;51.336;9.416;2022-10-19T01:53:26;1.15;;;1.08;;
27495;SDS011;14929;51.336;9.416;2022-10-19T01:55:55;0.80;;;0.80;;
27495;SDS011;14929;51.336;9.416;2022-10-19T01:58:25;1.50;;;1.40;;
27495;SDS011;14929;51.336;9.416;2022-10-19T02:00:56;1.60;;;1.50;;
27495;SDS011;14929;51.336;9.416;2022-10-19T02:03:27;1.98;;;1.83;;
27495;SDS011;14929;51.336;9.416;2022-10-19T02:05:55;1.00;;;1.00;;
27495;SDS011;14929;51.336;9.416;2022-10-19T02:08:24;3.95;;;1.52;;
27495;SDS011;14929;51.336;9.416;2022-10-19T02:10:54;3.28;;;1.65;;
27495;SDS011;14929;51.336;9.416;2022-10-19T02:13:23;4.70;;;1.92;;
27495;SDS011;14929;51.336;9.416;2022-10-19T02:15:51;1.98;;;1.55;;
27495;SDS011;14929;51.336;9.416;2022-10-19T02:18:23;2.20;;;1.98;;
27495;SDS011;14929;51.336;9.416;2022-10-19T02:20:52;3.40;;;1.58;;
27495;SDS011;14929;51.336;9.416;2022-10-19T02:23:21;3.33;;;1.65;;
27495;SDS011;14929;51.336;9.416;2022-10-19T02:25:50;0.93;;;0.90;;
27495;SDS011;14929;51.336;9.416;2022-10-19T02:28:18;0.80;;;0.80;;
27495;SDS011;14929;51.336;9.416;2022-10-19T02:30:46;1.00;;;1.00;;
27495;SDS011;14929;51.336;9.416;2022-10-19T02:33:15;0.80;;;0.80;;
27495;SDS011;14929;51.336;9.416;2022-10-19T02:35:43;0.90;;;0.90;;
27495;SDS011;14929;51.336;9.416;2022-10-19T02:38:12;1.02;;;1.02;;
27495;SDS011;14929;51.336;9.416;2022-10-19T02:40:47;0.80;;;0.80;;
27495;SDS011;14929;51.336;9.416;2022-10-19T02:43:19;0.90;;;0.90;;
27495;SDS011;14929;51.336;9.416;2022-10-19T02:45:48;0.65;;;0.65;;
27495;SDS011;14929;51.336;9.416;2022-10-19T02:48:21;1.10;;;1.08;;
27495;SDS011;14929;51.336;9.416;2022-10-19T02:50:50;1.33;;;1.33;;
27495;SDS011;14929;51.336;9.416;2022-10-19T02:53:17;1.17;;;1.08;;
27495;SDS011;14929;51.336;9.416;2022-10-19T02:55:45;1.30;;;1.20;;
27495;SDS011;14929;51.336;9.416;2022-10-19T02:58:14;1.30;;;1.20;;
27495;SDS011;14929;51.336;9.416;2022-10-19T03:00:41;0.80;;;0.80;;
27495;SDS011;14929;51.336;9.416;2022-10-19T03:03:09;0.80;;;0.80;;
27495;SDS011;14929;51.336;9.416;2022-10-19T03:05:38;1.13;;;0.90;;
27495;SDS011;14929;51.336;9.416;2022-10-19T03:08:05;0.70;;;0.70;;
27495;SDS011;14929;51.336;9.416;2022-10-19T03:10:33;0.70;;;0.70;;
27495;SDS011;14929;51.336;9.416;2022-10-19T03:13:00;1.13;;;1.13;;
27495;SDS011;14929;51.336;9.416;2022-10-19T03:15:28;0.90;;;0.90;;
27495;SDS011;14929;51.336;9.416;2022-10-19T03:17:55;1.27;;;1.17;;
27495;SDS011;14929;51.336;9.416;2022-10-19T03:20:23;1.35;;;1.20;;
27495;SDS011;14929;51.336;9.416;2022-10-19T03:22:52;2.92;;;1.80;;
27495;SDS011;14929;51.336;9.416;2022-10-19T03:25:19;1.60;;;1.50;;
27495;SDS011;14929;51.336;9.416;2022-10-19T03:27:47;1.30;;;1.20;;
27495;SDS011;14929;51.336;9.416;2022-10-19T03:30:14;1.90;;;1.52;;
27495;SDS011;14929;51.336;9.416;2022-10-19T03:32:42;2.42;;;2.10;;
27495;SDS011;14929;51.336;9.416;2022-10-19T03:35:09;4.50;;;3.20;;
27495;SDS011;14929;51.336;9.416;2022-10-19T03:37:37;5.50;;;3.70;;
27495;SDS011;14929;51.336;9.416;2022-10-19T03:40:06;8.55;;;3.60;;
27495;SDS011;14929;51.336;9.416;2022-10-19T03:42:38;5.22;;;3.40;;
27495;SDS011;14929;51.336;9.416;2022-10-19T03:45:06;4.32;;;3.15;;
27495;SDS011;14929;51.336;9.416;2022-10-19T03:47:34;5.47;;;4.03;;
27495;SDS011;14929;51.336;9.416;2022-10-19T03:50:02;5.90;;;4.78;;
27495;SDS011;14929;51.336;9.416;2022-10-19T03:52:30;6.75;;;3.88;;
27495;SDS011;14929;51.336;9.416;2022-10-19T03:54:58;7.97;;;4.20;;
27495;SDS011;14929;51.336;9.416;2022-10-19T03:57:27;7.45;;;4.55;;
27495;SDS011;14929;51.336;9.416;2022-10-19T03:59:54;8.50;;;5.60;;
27495;SDS011;14929;51.336;9.416;2022-10-19T04:02:21;4.45;;;4.03;;
27495;SDS011;14929;51.336;9.416;2022-10-19T04:04:49;4.75;;;3.10;;
27495;SDS011;14929;51.336;9.416;2022-10-19T04:07:16;2.83;;;2.63;;
27495;SDS011;14929;51.336;9.416;2022-10-19T04:09:44;1.80;;;1.70;;
27495;SDS011;14929;51.336;9.416;2022-10-19T04:12:11;1.58;;;1.48;;
27495;SDS011;14929;51.336;9.416;2022-10-19T04:14:40;1.48;;;1.38;;
27495;SDS011;14929;51.336;9.416;2022-10-19T04:17:08;1.45;;;1.35;;
27495;SDS011;14929;51.336;9.416;2022-10-19T04:19:36;0.90;;;0.90;;
27495;SDS011;14929;51.336;9.416;2022-10-19T04:22:03;1.58;;;1.48;;
27495;SDS011;14929;51.336;9.416;2022-10-19T04:24:30;0.90;;;0.90;;
27495;SDS011;14929;51.336;9.416;2022-10-19T04:26:58;1.00;;;1.00;;
27495;SDS011;14929;51.336;9.416;2022-10-19T04:29:25;1.33;;;1.33;;
27495;SDS011;14929;51.336;9.416;2022-10-19T04:31:54;1.27;;;1.17;;
27495;SDS011;14929;51.336;9.416;2022-10-19T04:34:22;0.88;;;0.88;;
27495;SDS011;14929;51.336;9.416;2022-10-19T04:36:49;1.10;;;1.10;;
27495;SDS011;14929;51.336;9.416;2022-10-19T04:39:17;1.52;;;1.42;;
27495;SDS011;14929;51.336;9.416;2022-10-19T04:41:45;1.10;;;1.10;;
27495;SDS011;14929;51.336;9.416;2022-10-19T04:44:12;0.90;;;0.90;;
27495;SDS011;14929;51.336;9.416;2022-10-19T04:46:40;1.27;;;1.20;;
27495;SDS011;14929;51.336;9.416;2022-10-19T04:49:09;1.10;;;1.10;;
27495;SDS011;14929;51.336;9.416;2022-10-19T04:51:36;0.98;;;0.98;;
27495;SDS011;14929;51.336;9.416;2022-10-19T04:54:04;1.88;;;1.60;;
27495;SDS011;14929;51.336;9.416;2022-10-19T04:56:31;3.35;;;1.75;;
27495;SDS011;14929;51.336;9.416;2022-10-19T04:58:59;1.63;;;1.52;;
27495;SDS011;14929;51.336;9.416;2022-10-19T05:01:27;1.23;;;1.20;;
27495;SDS011;14929;51.336;9.416;2022-10-19T05:03:58;1.40;;;1.30;;
27495;SDS011;14929;51.336;9.416;2022-10-19T05:06:28;1.25;;;1.25;;
27495;SDS011;14929;51.336;9.416;2022-10-19T05:08:56;1.33;;;1.30;;
27495;SDS011;14929;51.336;9.416;2022-10-19T05:11:24;1.58;;;1.48;;
27495;SDS011;14929;51.336;9.416;2022-10-19T05:13:52;1.23;;;1.20;;
27495;SDS011;14929;51.336;9.416;2022-10-19T05:16:21;1.63;;;1.52;;
27495;SDS011;14929;51.336;9.416;2022-10-19T05:18:50;1.73;;;1.63;;
27495;SDS011;14929;51.336;9.416;2022-10-19T05:21:23;1.50;;;1.40;;
27495;SDS011;14929;51.336;9.416;2022-10-19T05:23:53;1.15;;;1.15;;
27495;SDS011;14929;51.336;9.416;2022-10-19T05:26:22;1.80;;;1.70;;
27495;SDS011;14929;51.336;9.416;2022-10-19T05:28:52;1.00;;;1.00;;
27495;SDS011;14929;51.336;9.416;2022-10-19T05:31:22;1.00;;;1.00;;
27495;SDS011;14929;51.336;9.416;2022-10-19T05:33:51;1.42;;;1.33;;
27495;SDS011;14929;51.336;9.416;2022-10-19T05:36:20;2.13;;;1.50;;
27495;SDS011;14929;51.336;9.416;2022-10-19T05:38:50;1.30;;;1.20;;
27495;SDS011;14929;51.336;9.416;2022-10-19T05:41:21;1.52;;;1.42;;
27495;SDS011;14929;51.336;9.416;2022-10-19T05:43:51;5.22;;;2.17;;
27495;SDS011;14929;51.336;9.416;2022-10-19T05:46:19;3.60;;;1.65;;
27495;SDS011;14929;51.336;9.416;2022-10-19T05:48:48;1.63;;;1.52;;
27495;SDS011;14929;51.336;9.416;2022-10-19T05:51:16;2.50;;;2.30;;
27495;SDS011;14929;51.336;9.416;2022-10-19T05:53:45;2.40;;;2.20;;
27495;SDS011;14929;51.336;9.416;2022-10-19T05:56:15;3.40;;;2.90;;
27495;SDS011;14929;51.336;9.416;2022-10-19T05:58:43;5.05;;;3.85;;
27495;SDS011;14929;51.336;9.416;2022-10-19T06:01:11;4.47;;;4.07;;
27495;SDS011;14929;51.336;9.416;2022-10-19T06:03:40;5.30;;;3.75;;
27495;SDS011;14929;51.336;9.416;2022-10-19T06:06:08;6.25;;;4.78;;
27495;SDS011;14929;51.336;9.416;2022-10-19T06:08:36;3.20;;;3.00;;
27495;SDS011;14929;51.336;9.416;2022-10-19T06:11:04;3.30;;;3.00;;
27495;SDS011;14929;51.336;9.416;2022-10-19T06:13:38;2.00;;;1.90;;
27495;SDS011;14929;51.336;9.416;2022-10-19T06:16:18;1.60;;;1.50;;
27495;SDS011;14929;51.336;9.416;2022-10-19T06:18:46;4.65;;;2.78;;
27495;SDS011;14929;51.336;9.416;2022-10-19T06:21:15;5.25;;;3.00;;
27495;SDS011;14929;51.336;9.416;2022-10-19T06:23:48;6.40;;;3.22;;
27495;SDS011;14929;51.336;9.416;2022-10-19T06:26:16;3.17;;;2.00;;
27495;SDS011;14929;51.336;9.416;2022-10-19T06:28:45;1.90;;;1.80;;
27495;SDS011;14929;51.336;9.416;2022-10-19T06:31:14;1.70;;;1.60;;
27495;SDS011;14929;51.336;9.416;2022-10-19T06:33:42;1.77;;;1.50;;
27495;SDS011;14929;51.336;9.416;2022-10-19T06:36:12;2.20;;;2.03;;
27495;SDS011;14929;51.336;9.416;2022-10-19T06:38:41;2.25;;;1.98;;
27495;SDS011;14929;51.336;9.416;2022-10-19T06:41:09;2.58;;;2.17;;
27495;SDS011;14929;51.336;9.416;2022-10-19T06:43:37;2.15;;;2.05;;
27495;SDS011;14929;51.336;9.416;2022-10-19T06:46:08;2.88;;;2.63;;
27495;SDS011;14929;51.336;9.416;2022-10-19T06:48:41;2.55;;;2.25;;
27495;SDS011;14929;51.336;9.416;2022-10-19T06:51:09;2.20;;;2.00;;
27495;SDS011;14929;51.336;9.416;2022-10-19T06:53:37;2.28;;;2.08;;
27495;SDS011;14929;51.336;9.416;2022-10-19T06:56:05;1.90;;;1.80;;
27495;SDS011;14929;51.336;9.416;2022-10-19T06:58:34;2.58;;;2.38;;
27495;SDS011;14929;51.336;9.416;2022-10-19T07:01:02;2.03;;;1.92;;
27495;SDS011;14929;51.336;9.416;2022-10-19T07:03:34;1.63;;;1.52;;
27495;SDS011;14929;51.336;9.416;2022-10-19T07:06:02;1.95;;;1.85;;
27495;SDS011;14929;51.336;9.416;2022-10-19T07:08:33;2.58;;;2.42;;
27495;SDS011;14929;51.336;9.416;2022-10-19T07:11:03;2.00;;;1.83;;
27495;SDS011;14929;51.336;9.416;2022-10-19T07:13:32;2.75;;;2.42;;
27495;SDS011;14929;51.336;9.416;2022-10-19T07:16:01;2.10;;;2.00;;
27495;SDS011;14929;51.336;9.416;2022-10-19T07:18:31;2.03;;;1.92;;
27495;SDS011;14929;51.336;9.416;2022-10-19T07:21:01;2.25;;;1.88;;
27495;SDS011;14929;51.336;9.416;2022-10-19T07:23:30;2.10;;;2.00;;
27495;SDS011;14929;51.336;9.416;2022-10-19T07:26:02;2.70;;;2.50;;
27495;SDS011;14929;51.336;9.416;2022-10-19T07:28:31;2.53;;;2.33;;
27495;SDS011;14929;51.336;9.416;2022-10-19T07:31:03;2.65;;;2.05;;
27495;SDS011;14929;51.336;9.416;2022-10-19T07:33:33;3.72;;;2.30;;
27495;SDS011;14929;51.336;9.416;2022-10-19T07:36:02;2.25;;;2.15;;
27495;SDS011;14929;51.336;9.416;2022-10-19T07:38:32;2.45;;;2.22;;
27495;SDS011;14929;51.336;9.416;2022-10-19T07:41:02;4.30;;;2.85;;
27495;SDS011;14929;51.336;9.416;2022-10-19T07:43:31;3.45;;;2.70;;
27495;SDS011;14929;51.336;9.416;2022-10-19T07:46:00;1.90;;;1.80;;
27495;SDS011;14929;51.336;9.416;2022-10-19T07:48:30;2.90;;;2.60;;
27495;SDS011;14929;51.336;9.416;2022-10-19T07:51:00;3.53;;;3.33;;
27495;SDS011;14929;51.336;9.416;2022-10-19T07:53:30;2.10;;;2.00;;
27495;SDS011;14929;51.336;9.416;2022-10-19T07:56:01;2.80;;;2.38;;
27495;SDS011;14929;51.336;9.416;2022-10-19T07:58:30;3.05;;;2.85;;
27495;SDS011;14929;51.336;9.416;2022-10-19T08:00:58;3.30;;;3.00;;
27495;SDS011;14929;51.336;9.416;2022-10-19T08:03:27;2.83;;;2.63;;
27495;SDS011;14929;51.336;9.416;2022-10-19T08:05:59;2.22;;;2.03;;
27495;SDS011;14929;51.336;9.416;2022-10-19T08:08:27;2.10;;;1.65;;
27495;SDS011;14929;51.336;9.416;2022-10-19T08:10:55;2.10;;;1.90;;
27495;SDS011;14929;51.336;9.416;2022-10-19T08:13:23;3.25;;;1.83;;
27495;SDS011;14929;51.336;9.416;2022-10-19T08:15:50;2.53;;;2.30;;
27495;SDS011;14929;51.336;9.416;2022-10-19T08:18:18;3.50;;;2.45;;
27495;SDS011;14929;51.336;9.416;2022-10-19T08:20:47;1.90;;;1.80;;
27495;SDS011;14929;51.336;9.416;2022-10-19T08:23:16;2.15;;;2.05;;
27495;SDS011;14929;51.336;9.416;2022-10-19T08:25:43;2.10;;;1.90;;
27495;SDS011;14929;51.336;9.416;2022-10-19T08:28:11;2.95;;;2.75;;
27495;SDS011;14929;51.336;9.416;2022-10-19T08:30:39;2.72;;;2.53;;
27495;SDS011;14929;51.336;9.416;2022-10-19T08:33:07;2.35;;;2.20;;
27495;SDS011;14929;51.336;9.416;2022-10-19T08:35:36;2.85;;;2.20;;
27495;SDS011;14929;51.336;9.416;2022-10-19T08:38:04;3.20;;;3.00;;
27495;SDS011;14929;51.336;9.416;2022-10-19T08:40:32;2.60;;;2.40;;
27495;SDS011;14929;51.336;9.416;2022-10-19T08:43:03;3.78;;;3.00;;
27495;SDS011;14929;51.336;9.416;2022-10-19T08:45:37;3.47;;;3.17;;
27495;SDS011;14929;51.336;9.416;2022-10-19T08:48:17;2.90;;;2.70;;
27495;SDS011;14929;51.336;9.416;2022-10-19T08:50:50;3.05;;;2.80;;
27495;SDS011;14929;51.336;9.416;2022-10-19T08:53:21;2.85;;;2.65;;
27495;SDS011;14929;51.336;9.416;2022-10-19T08:56:02;2.78;;;2.58;;
27495;SDS011;14929;51.336;9.416;2022-10-19T08:58:47;3.55;;;3.25;;
27495;SDS011;14929;51.336;9.416;2022-10-19T09:01:28;2.42;;;2.22;;
27495;SDS011;14929;51.336;9.416;2022-10-19T09:04:03;2.10;;;1.90;;
27495;SDS011;14929;51.336;9.416;2022-10-19T09:06:36;3.15;;;2.00;;
27495;SDS011;14929;51.336;9.416;2022-10-19T09:09:18;2.55;;;2.35;;
27495;SDS011;14929;51.336;9.416;2022-10-19T09:11:48;1.92;;;1.75;;
27495;SDS011;14929;51.336;9.416;2022-10-19T09:14:20;2.25;;;2.05;;
27495;SDS011;14929;51.336;9.416;2022-10-19T09:16:51;1.98;;;1.80;;
27495;SDS011;14929;51.336;9.416;2022-10-19T09:19:20;1.88;;;1.77;;
27495;SDS011;14929;51.336;9.416;2022-10-19T09:21:50;2.72;;;2.40;;
27495;SDS011;14929;51.336;9.416;2022-10-19T09:24:29;4.15;;;2.85;;
27495;SDS011;14929;51.336;9.416;2022-10-19T09:27:04;3.60;;;2.25;;
27495;SDS011;14929;51.336;9.416;2022-10-19T09:29:36;2.35;;;2.25;;
27495;SDS011;14929;51.336;9.416;2022-10-19T09:32:09;2.15;;;1.98;;
27495;SDS011;14929;51.336;9.416;2022-10-19T09:34:40;2.42;;;2.15;;
27495;SDS011;14929;51.336;9.416;2022-10-19T09:37:10;2.78;;;2.40;;
27495;SDS011;14929;51.336;9.416;2022-10-19T09:39:38;1.92;;;1.83;;
27495;SDS011;14929;51.336;9.416;2022-10-19T09:42:09;2.30;;;2.10;;
27495;SDS011;14929;51.336;9.416;2022-10-19T09:44:44;1.83;;;1.73;;
27495;SDS011;14929;51.336;9.416;2022-10-19T09:47:17;4.22;;;2.20;;
27495;SDS011;14929;51.336;9.416;2022-10-19T09:50:15;2.35;;;1.95;;
27495;SDS011;14929;51.336;9.416;2022-10-19T09:52:45;3.10;;;2.63;;
27495;SDS011;14929;51.336;9.416;2022-10-19T09:55:19;2.10;;;1.90;;
27495;SDS011;14929;51.336;9.416;2022-10-19T09:57:59;3.38;;;1.98;;
27495;SDS011;14929;51.336;9.416;2022-10-19T10:00:31;2.15;;;1.67;;
27495;SDS011;14929;51.336;9.416;2022-10-19T10:03:03;1.88;;;1.67;;
27495;SDS011;14929;51.336;9.416;2022-10-19T10:05:32;2.25;;;1.80;;
27495;SDS011;14929;51.336;9.416;2022-10-19T10:08:02;2.28;;;1.73;;
27495;SDS011;14929;51.336;9.416;2022-10-19T10:10:31;1.00;;;1.00;;
27495;SDS011;14929;51.336;9.416;2022-10-19T10:13:05;1.42;;;1.33;;
27495;SDS011;14929;51.336;9.416;2022-10-19T10:15:35;1.50;;;1.40;;
27495;SDS011;14929;51.336;9.416;2022-10-19T10:18:10;4.38;;;1.50;;
27495;SDS011;14929;51.336;9.416;2022-10-19T10:20:54;1.30;;;1.10;;
27495;SDS011;14929;51.336;9.416;2022-10-19T10:23:26;1.08;;;1.08;;
27495;SDS011;14929;51.336;9.416;2022-10-19T10:25:58;1.25;;;1.08;;
27495;SDS011;14929;51.336;9.416;2022-10-19T10:28:28;1.05;;;0.95;;
27495;SDS011;14929;51.336;9.416;2022-10-19T10:31:00;0.88;;;0.85;;
27495;SDS011;14929;51.336;9.416;2022-10-19T10:33:29;1.10;;;0.75;;
27495;SDS011;14929;51.336;9.416;2022-10-19T10:36:02;1.08;;;1.08;;
27495;SDS011;14929;51.336;9.416;2022-10-19T10:38:34;0.60;;;0.60;;
27495;SDS011;14929;51.336;9.416;2022-10-19T10:41:08;0.65;;;0.60;;
27495;SDS011;14929;51.336;9.416;2022-10-19T10:43:47;1.10;;;0.75;;
27495;SDS011;14929;51.336;9.416;2022-10-19T10:46:19;0.60;;;0.60;;
27495;SDS011;14929;51.336;9.416;2022-10-19T10:48:53;0.80;;;0.80;;
27495;SDS011;14929;51.336;9.416;2022-10-19T10:51:24;0.60;;;0.60;;
27495;SDS011;14929;51.336;9.416;2022-10-19T10:54:17;0.50;;;0.50;;
27495;SDS011;14929;51.336;9.416;2022-10-19T10:57:01;0.35;;;0.35;;
27495;SDS011;14929;51.336;9.416;2022-10-19T10:59:39;0.65;;;0.65;;
27495;SDS011;14929;51.336;9.416;2022-10-19T11:02:34;0.60;;;0.60;;
27495;SDS011;14929;51.336;9.416;2022-10-19T11:05:07;0.70;;;0.70;;
27495;SDS011;14929;51.336;9.416;2022-10-19T11:07:39;0.65;;;0.65;;
27495;SDS011;14929;51.336;9.416;2022-10-19T11:10:13;0.60;;;0.60;;
27495;SDS011;14929;51.336;9.416;2022-10-19T11:12:51;0.32;;;0.32;;
27495;SDS011;14929;51.336;9.416;2022-10-19T11:15:26;0.38;;;0.38;;
27495;SDS011;14929;51.336;9.416;2022-10-19T11:17:59;0.70;;;0.70;;
27495;SDS011;14929;51.336;9.416;2022-10-19T11:20:39;0.45;;;0.45;;
27495;SDS011;14929;51.336;9.416;2022-10-19T11:23:12;0.50;;;0.50;;
27495;SDS011;14929;51.336;9.416;2022-10-19T11:25:46;0.47;;;0.38;;
27495;SDS011;14929;51.336;9.416;2022-10-19T11:28:25;0.40;;;0.40;;
27495;SDS011;14929;51.336;9.416;2022-10-19T11:31:11;1.45;;;0.52;;
27495;SDS011;14929;51.336;9.416;2022-10-19T11:33:50;0.95;;;0.65;;
27495;SDS011;14929;51.336;9.416;2022-10-19T11:36:30;0.60;;;0.60;;
27495;SDS011;14929;51.336;9.416;2022-10-19T11:39:15;0.77;;;0.77;;
27495;SDS011;14929;51.336;9.416;2022-10-19T11:41:56;1.23;;;0.70;;
27495;SDS011;14929;51.336;9.416;2022-10-19T11:44:36;0.70;;;0.70;;
27495;SDS011;14929;51.336;9.416;2022-10-19T11:47:18;0.77;;;0.60;;
27495;SDS011;14929;51.336;9.416;2022-10-19T11:50:00;0.60;;;0.60;;
27495;SDS011;14929;51.336;9.416;2022-10-19T11:52:40;0.80;;;0.80;;
27495;SDS011;14929;51.336;9.416;2022-10-19T11:55:14;0.57;;;0.47;;
27495;SDS011;14929;51.336;9.416;2022-10-19T11:57:54;0.57;;;0.57;;
27495;SDS011;14929;51.336;9.416;2022-10-19T12:00:29;0.52;;;0.52;;
27495;SDS011;14929;51.336;9.416;2022-10-19T12:03:12;1.08;;;0.95;;
27495;SDS011;14929;51.336;9.416;2022-10-19T12:06:00;0.60;;;0.60;;
27495;SDS011;14929;51.336;9.416;2022-10-19T12:08:37;0.75;;;0.70;;
27495;SDS011;14929;51.336;9.416;2022-10-19T12:11:20;0.88;;;0.88;;
27495;SDS011;14929;51.336;9.416;2022-10-19T12:13:54;0.85;;;0.75;;
27495;SDS011;14929;51.336;9.416;2022-10-19T12:16:27;1.27;;;1.10;;
27495;SDS011;14929;51.336;9.416;2022-10-19T12:19:02;0.60;;;0.60;;
27495;SDS011;14929;51.336;9.416;2022-10-19T12:21:32;0.47;;;0.47;;
27495;SDS011;14929;51.336;9.416;2022-10-19T12:24:01;0.80;;;0.80;;
27495;SDS011;14929;51.336;9.416;2022-10-19T12:26:36;0.80;;;0.80;;
27495;SDS011;14929;51.336;9.416;2022-10-19T12:29:04;1.20;;;1.10;;
27495;SDS011;14929;51.336;9.416;2022-10-19T12:31:37;1.50;;;1.00;;
27495;SDS011;14929;51.336;9.416;2022-10-19T12:34:06;2.13;;;1.52;;
27495;SDS011;14929;51.336;9.416;2022-10-19T12:36:43;1.08;;;0.90;;
27495;SDS011;14929;51.336;9.416;2022-10-19T12:39:16;1.30;;;1.20;;
27495;SDS011;14929;51.336;9.416;2022-10-19T12:41:50;1.45;;;1.30;;
27495;SDS011;14929;51.336;9.416;2022-10-19T12:44:29;1.00;;;1.00;;
27495;SDS011;14929;51.336;9.416;2022-10-19T12:47:10;0.80;;;0.80;;
27495;SDS011;14929;51.336;9.416;2022-10-19T12:49:45;3.30;;;1.10;;
27495;SDS011;14929;51.336;9.416;2022-10-19T12:52:14;0.77;;;0.77;;
27495;SDS011;14929;51.336;9.416;2022-10-19T12:55:03;2.63;;;1.10;;
27495;SDS011;14929;51.336;9.416;2022-10-19T12:57:55;0.90;;;0.90;;
27495;SDS011;14929;51.336;9.416;2022-10-19T13:00:27;0.70;;;0.70;;
27495;SDS011;14929;51.336;9.416;2022-10-19T13:02:58;0.90;;;0.90;;
27495;SDS011;14929;51.336;9.416;2022-10-19T13:05:31;0.65;;;0.65;;
27495;SDS011;14929;51.336;9.416;2022-10-19T13:07:59;2.22;;;1.08;;
27495;SDS011;14929;51.336;9.416;2022-10-19T13:10:29;1.02;;;0.98;;
27495;SDS011;14929;51.336;9.416;2022-10-19T13:12:58;1.10;;;0.82;;
27495;SDS011;14929;51.336;9.416;2022-10-19T13:21:47;0.63;;;0.63;;
27495;SDS011;14929;51.336;9.416;2022-10-19T13:24:29;1.48;;;0.95;;
27495;SDS011;14929;51.336;9.416;2022-10-19T13:30:03;0.68;;;0.68;;
27495;SDS011;14929;51.336;9.416;2022-10-19T13:32:35;0.80;;;0.80;;
27495;SDS011;14929;51.336;9.416;2022-10-19T13:38:18;1.10;;;1.00;;
27495;SDS011;14929;51.336;9.416;2022-10-19T13:40:55;1.25;;;0.85;;
27495;SDS011;14929;51.336;9.416;2022-10-19T13:43:37;1.15;;;0.80;;
27495;SDS011;14929;51.336;9.416;2022-10-19T13:46:15;1.13;;;1.10;;
27495;SDS011;14929;51.336;9.416;2022-10-19T13:52:02;1.70;;;0.90;;
27495;SDS011;14929;51.336;9.416;2022-10-19T13:55:03;1.02;;;0.82;;
27495;SDS011;14929;51.336;9.416;2022-10-19T13:57:51;1.23;;;1.13;;
27495;SDS011;14929;51.336;9.416;2022-10-19T14:00:43;1.92;;;1.65;;
27495;SDS011;14929;51.336;9.416;2022-10-19T14:03:27;2.28;;;1.60;;
27495;SDS011;14929;51.336;9.416;2022-10-19T14:06:13;0.93;;;0.88;;
27495;SDS011;14929;51.336;9.416;2022-10-19T14:12:07;0.90;;;0.90;;
27495;SDS011;14929;51.336;9.416;2022-10-19T14:14:40;1.00;;;1.00;;
27495;SDS011;14929;51.336;9.416;2022-10-19T14:17:12;0.85;;;0.85;;
27495;SDS011;14929;51.336;9.416;2022-10-19T14:19:43;1.48;;;1.38;;
27495;SDS011;14929;51.336;9.416;2022-10-19T14:22:19;1.17;;;0.75;;
27495;SDS011;14929;51.336;9.416;2022-10-19T14:24:51;0.98;;;0.93;;
27495;SDS011;14929;51.336;9.416;2022-10-19T14:27:28;2.25;;;1.20;;
27495;SDS011;14929;51.336;9.416;2022-10-19T14:29:56;1.65;;;1.00;;
27495;SDS011;14929;51.336;9.416;2022-10-19T14:32:24;1.42;;;1.33;;
27495;SDS011;14929;51.336;9.416;2022-10-19T14:34:53;1.42;;;0.77;;
27495;SDS011;14929;51.336;9.416;2022-10-19T14:37:24;0.90;;;0.90;;
27495;SDS011;14929;51.336;9.416;2022-10-19T14:39:56;1.17;;;1.08;;
27495;SDS011;14929;51.336;9.416;2022-10-19T14:42:41;0.90;;;0.90;;
27495;SDS011;14929;51.336;9.416;2022-10-19T14:45:15;1.02;;;1.00;;
27495;SDS011;14929;51.336;9.416;2022-10-19T14:47:55;2.85;;;1.20;;
27495;SDS011;14929;51.336;9.416;2022-10-19T14:50:27;1.17;;;1.17;;
27495;SDS011;14929;51.336;9.416;2022-10-19T14:53:00;0.90;;;0.90;;
27495;SDS011;14929;51.336;9.416;2022-10-19T14:55:33;1.30;;;1.10;;
27495;SDS011;14929;51.336;9.416;2022-10-19T14:58:06;1.50;;;1.20;;
27495;SDS011;14929;51.336;9.416;2022-10-19T15:00:42;1.40;;;1.13;;
27495;SDS011;14929;51.336;9.416;2022-10-19T15:03:15;1.38;;;0.98;;
27495;SDS011;14929;51.336;9.416;2022-10-19T15:05:51;1.80;;;1.30;;
27495;SDS011;14929;51.336;9.416;2022-10-19T15:08:26;1.13;;;1.02;;
27495;SDS011;14929;51.336;9.416;2022-10-19T15:11:04;1.77;;;1.30;;
27495;SDS011;14929;51.336;9.416;2022-10-19T15:13:39;1.83;;;1.50;;
27495;SDS011;14929;51.336;9.416;2022-10-19T15:19:15;1.20;;;1.20;;
27495;SDS011;14929;51.336;9.416;2022-10-19T15:21:46;1.20;;;1.10;;
27495;SDS011;14929;51.336;9.416;2022-10-19T15:24:29;1.50;;;1.40;;
27495;SDS011;14929;51.336;9.416;2022-10-19T15:26:57;1.35;;;1.25;;
27495;SDS011;14929;51.336;9.416;2022-10-19T15:29:39;2.20;;;1.60;;
27495;SDS011;14929;51.336;9.416;2022-10-19T15:32:13;1.25;;;1.25;;
27495;SDS011;14929;51.336;9.416;2022-10-19T15:34:43;2.10;;;1.20;;
27495;SDS011;14929;51.336;9.416;2022-10-19T15:37:15;1.20;;;1.10;;
27495;SDS011;14929;51.336;9.416;2022-10-19T15:39:48;2.92;;;1.52;;
27495;SDS011;14929;51.336;9.416;2022-10-19T15:42:22;1.55;;;1.45;;
27495;SDS011;14929;51.336;9.416;2022-10-19T15:45:03;1.20;;;1.20;;